createdAt,value
2018-08-10T00:00:41.213Z,75.65
2018-08-10T00:03:09.847Z,76.77
2018-08-10T00:05:38.975Z,74.84
2018-08-10T00:08:07.492Z,75.90
2018-08-10T00:10:35.852Z,75.56
2018-08-10T00:13:04.349Z,74.96
2018-08-10T00:15:32.762Z,75.16
2018-08-10T00:18:01.209Z,75.72
2018-08-10T00:20:30.032Z,75.52
2018-08-10T00:22:58.399Z,76.37
2018-08-10T00:25:26.764Z,78.10
2018-08-10T00:27:55.177Z,76.21
2018-08-10T00:30:23.602Z,76.02
2018-08-10T00:32:51.962Z,75.26
2018-08-10T00:35:20.301Z,75.93
2018-08-10T00:37:49.327Z,76.06
2018-08-10T00:40:19.291Z,75.29
2018-08-10T00:42:47.846Z,75.82
2018-08-10T00:45:17.001Z,75.29
2018-08-10T00:47:45.781Z,75.17
2018-08-10T00:50:15.297Z,75.70
2018-08-10T00:52:45.029Z,75.43
2018-08-10T00:55:14.718Z,75.97
2018-08-10T00:57:43.505Z,75.79
2018-08-10T01:00:16.050Z,75.71
2018-08-10T01:02:44.430Z,75.68
2018-08-10T01:05:12.780Z,75.33
2018-08-10T01:07:41.140Z,75.71
2018-08-10T01:10:13.049Z,75.60
2018-08-10T01:12:41.761Z,75.38
2018-08-10T01:15:12.297Z,75.04
2018-08-10T01:17:40.872Z,75.06
2018-08-10T01:20:14.173Z,74.32
2018-08-10T01:22:44.616Z,74.74
2018-08-10T01:25:13.388Z,73.77
2018-08-10T01:27:47.043Z,74.21
2018-08-10T01:30:15.404Z,73.75
2018-08-10T01:32:44.357Z,74.02
2018-08-10T01:35:12.753Z,73.83
2018-08-10T01:37:41.291Z,73.63
2018-08-10T01:40:09.909Z,73.70
2018-08-10T01:42:38.719Z,73.04
2018-08-10T01:45:08.694Z,74.42
2018-08-10T01:47:37.129Z,73.89
2018-08-10T01:50:06.188Z,72.85
2018-08-10T01:52:34.566Z,73.69
2018-08-10T01:55:03.146Z,73.72
2018-08-10T01:57:31.637Z,74.94
2018-08-10T02:00:00.833Z,72.66
2018-08-10T02:02:29.182Z,73.59
2018-08-10T02:04:57.570Z,72.70
2018-08-10T02:07:25.991Z,73.61
2018-08-10T02:09:54.370Z,73.07
2018-08-10T02:12:22.854Z,73.66
2018-08-10T02:14:51.230Z,73.25
2018-08-10T02:17:19.612Z,72.50
2018-08-10T02:19:48.024Z,74.05
2018-08-10T02:22:16.459Z,73.35
2018-08-10T02:24:44.911Z,73.31
2018-08-10T02:27:13.334Z,72.65
2018-08-10T02:29:41.781Z,73.52
2018-08-10T02:32:10.142Z,74.03
2018-08-10T02:34:39.081Z,72.82
2018-08-10T02:37:07.516Z,72.61
2018-08-10T02:39:35.847Z,72.94
2018-08-10T02:42:04.217Z,72.07
2018-08-10T02:44:32.820Z,72.08
2018-08-10T02:47:01.214Z,71.87
2018-08-10T02:49:29.621Z,72.62
2018-08-10T02:51:58.009Z,74.13
2018-08-10T02:54:26.462Z,72.92
2018-08-10T02:56:54.855Z,72.29
2018-08-10T02:59:23.240Z,72.51
2018-08-10T03:01:51.587Z,72.29
2018-08-10T03:04:19.971Z,72.37
2018-08-10T03:06:48.358Z,71.95
2018-08-10T03:09:16.742Z,71.68
2018-08-10T03:11:45.112Z,71.73
2018-08-10T03:14:13.480Z,71.87
2018-08-10T03:16:41.834Z,71.97
2018-08-10T03:19:10.212Z,72.06
2018-08-10T03:21:38.618Z,71.90
2018-08-10T03:24:07.009Z,71.36
2018-08-10T03:26:35.376Z,71.30
2018-08-10T03:29:03.788Z,71.62
2018-08-10T03:31:32.137Z,71.72
2018-08-10T03:34:00.553Z,71.60
2018-08-10T03:36:29.410Z,71.22
2018-08-10T03:38:57.757Z,71.24
2018-08-10T03:41:26.129Z,71.82
2018-08-10T03:43:54.515Z,71.06
2018-08-10T03:46:22.921Z,70.92
2018-08-10T03:48:51.720Z,70.93
2018-08-10T03:51:20.100Z,71.25
2018-08-10T03:53:48.494Z,72.00
2018-08-10T03:56:16.926Z,70.94
2018-08-10T03:58:45.884Z,71.14
2018-08-10T04:01:14.260Z,70.86
2018-08-10T04:03:43.472Z,70.49
2018-08-10T04:06:11.846Z,70.19
2018-08-10T04:08:40.222Z,71.43
2018-08-10T04:11:08.583Z,70.28
2018-08-10T04:13:36.945Z,70.50
2018-08-10T04:16:05.362Z,70.32
2018-08-10T04:18:33.968Z,71.38
2018-08-10T04:21:02.306Z,70.55
2018-08-10T04:23:30.655Z,70.16
2018-08-10T04:25:59.032Z,70.24
2018-08-10T04:28:27.485Z,70.46
2018-08-10T04:30:55.896Z,70.47
2018-08-10T04:33:24.724Z,70.77
2018-08-10T04:35:53.100Z,69.81
2018-08-10T04:38:21.569Z,71.19
2018-08-10T04:40:49.892Z,69.70
2018-08-10T04:43:18.237Z,69.54
2018-08-10T04:45:47.046Z,69.90
2018-08-10T04:48:15.477Z,69.48
2018-08-10T04:50:43.853Z,69.74
2018-08-10T04:53:12.230Z,69.45
2018-08-10T04:55:40.635Z,69.64
2018-08-10T04:58:09.047Z,69.67
2018-08-10T05:00:37.398Z,70.99
2018-08-10T05:03:05.743Z,70.61
2018-08-10T05:05:34.119Z,70.12
2018-08-10T05:08:02.477Z,70.48
2018-08-10T05:10:30.817Z,70.43
2018-08-10T05:12:59.197Z,69.42
2018-08-10T05:15:27.569Z,70.00
2018-08-10T05:17:56.010Z,69.17
2018-08-10T05:20:24.417Z,69.03
2018-08-10T05:22:52.792Z,68.34
2018-08-10T05:25:21.157Z,68.61
2018-08-10T05:27:49.611Z,68.12
2018-08-10T05:30:17.954Z,67.59
2018-08-10T05:32:46.326Z,67.75
2018-08-10T05:35:14.706Z,66.83
2018-08-10T05:37:43.124Z,67.06
2018-08-10T05:40:11.705Z,66.74
2018-08-10T05:42:40.186Z,67.12
2018-08-10T05:45:08.771Z,66.82
2018-08-10T05:47:37.729Z,66.73
2018-08-10T05:50:06.755Z,66.73
2018-08-10T05:52:35.656Z,65.41
2018-08-10T05:55:05.836Z,64.32
2018-08-10T05:57:34.228Z,63.37
2018-08-10T06:00:02.586Z,63.40
2018-08-10T06:02:31.006Z,62.64
2018-08-10T06:05:00.037Z,61.94
2018-08-10T06:07:28.862Z,61.41
2018-08-10T06:09:57.546Z,62.78
2018-08-10T06:12:26.538Z,60.90
2018-08-10T06:14:55.025Z,61.39
2018-08-10T06:17:23.461Z,60.32
2018-08-10T06:19:51.836Z,60.81
2018-08-10T06:22:20.364Z,60.74
2018-08-10T06:24:48.943Z,60.75
2018-08-10T06:27:17.769Z,61.54
2018-08-10T06:29:46.140Z,60.96
2018-08-10T06:32:14.664Z,60.52
2018-08-10T06:34:43.078Z,60.54
2018-08-10T06:37:11.459Z,60.79
2018-08-10T06:39:39.870Z,60.49
2018-08-10T06:42:08.252Z,61.05
2018-08-10T06:44:36.757Z,60.50
2018-08-10T06:47:05.179Z,60.77
2018-08-10T06:49:33.587Z,61.33
2018-08-10T06:52:02.024Z,60.65
2018-08-10T06:54:30.385Z,61.01
2018-08-10T06:56:58.776Z,61.41
2018-08-10T06:59:27.143Z,60.46
2018-08-10T07:01:55.520Z,61.36
2018-08-10T07:04:23.860Z,61.39
2018-08-10T07:06:52.211Z,60.62
2018-08-10T07:09:20.649Z,61.62
2018-08-10T07:11:49.007Z,61.93
2018-08-10T07:14:17.376Z,61.19
2018-08-10T07:16:45.796Z,61.56
2018-08-10T07:19:14.180Z,61.67
2018-08-10T07:21:42.560Z,61.45
2018-08-10T07:24:10.951Z,61.00
2018-08-10T07:26:39.348Z,61.30
2018-08-10T07:29:07.733Z,61.43
2018-08-10T07:31:36.162Z,61.17
2018-08-10T07:34:04.509Z,60.52
2018-08-10T07:36:32.891Z,60.68
2018-08-10T07:39:01.252Z,60.02
2018-08-10T07:41:29.628Z,60.97
2018-08-10T07:43:58.058Z,61.28
2018-08-10T07:46:26.502Z,60.95
2018-08-10T07:48:55.138Z,60.58
2018-08-10T07:51:23.487Z,60.24
2018-08-10T07:53:51.929Z,60.19
2018-08-10T07:56:20.310Z,59.94
2018-08-10T07:58:48.661Z,60.17
2018-08-10T08:01:17.004Z,60.13
2018-08-10T08:03:45.399Z,60.18
2018-08-10T08:06:13.887Z,60.11
2018-08-10T08:08:42.225Z,60.09
2018-08-10T08:11:10.687Z,59.22
2018-08-10T08:13:39.097Z,59.41
2018-08-10T08:16:07.493Z,58.33
2018-08-10T08:18:36.357Z,59.17
2018-08-10T08:21:07.091Z,59.24
2018-08-10T08:23:35.792Z,58.87
2018-08-10T08:26:04.771Z,58.97
2018-08-10T08:28:33.474Z,56.92
2018-08-10T08:31:02.779Z,57.95
2018-08-10T08:33:31.140Z,57.79
2018-08-10T08:36:00.848Z,57.74
2018-08-10T08:38:40.524Z,55.51
2018-08-10T08:41:09.997Z,55.49
2018-08-10T08:46:24.185Z,52.49
2018-08-10T08:48:53.155Z,56.95
2018-08-10T08:51:23.088Z,55.47
2018-08-10T08:54:02.645Z,55.06
2018-08-10T08:56:42.185Z,55.55
2018-08-10T08:59:10.586Z,55.55
2018-08-10T09:01:38.995Z,55.65
2018-08-10T09:05:10.907Z,55.14
2018-08-10T09:07:39.762Z,54.85
2018-08-10T09:10:13.148Z,53.56
2018-08-10T09:12:41.858Z,54.05
2018-08-10T09:15:12.210Z,54.50
2018-08-10T09:17:40.750Z,52.71
2018-08-10T09:20:09.887Z,53.02
2018-08-10T09:22:38.376Z,53.38
2018-08-10T09:25:09.399Z,52.18
2018-08-10T09:27:37.904Z,51.45
2018-08-10T09:30:08.702Z,51.95
2018-08-10T09:32:37.388Z,51.75
2018-08-10T09:35:06.894Z,51.50
2018-08-10T09:37:35.388Z,51.54
2018-08-10T09:40:04.504Z,51.35
2018-08-10T09:42:32.930Z,51.01
2018-08-10T09:45:01.365Z,49.17
2018-08-10T09:47:29.824Z,49.57
2018-08-10T09:49:58.283Z,50.51
2018-08-10T09:52:26.766Z,48.90
2018-08-10T09:55:38.908Z,48.86
2018-08-10T09:58:14.775Z,48.41
2018-08-10T10:00:48.578Z,47.83
2018-08-10T10:03:18.281Z,47.81
2018-08-10T10:05:47.580Z,47.61
2018-08-10T10:08:16.457Z,46.01
2018-08-10T10:10:44.937Z,45.90
2018-08-10T10:13:13.390Z,46.15
2018-08-10T10:15:42.907Z,45.65
2018-08-10T10:18:12.736Z,45.85
2018-08-10T10:20:41.339Z,45.41
2018-08-10T10:23:09.774Z,46.08
2018-08-10T10:25:38.606Z,43.92
2018-08-10T10:28:08.009Z,44.55
2018-08-10T10:30:36.476Z,42.21
2018-08-10T10:33:04.857Z,43.86
2018-08-10T10:35:33.486Z,44.06
2018-08-10T10:38:02.497Z,43.73
2018-08-10T10:40:30.902Z,42.18
2018-08-10T10:42:59.338Z,41.95
2018-08-10T10:45:27.717Z,42.72
2018-08-10T10:47:56.125Z,42.18
2018-08-10T10:50:24.502Z,42.35
2018-08-10T10:52:53.007Z,40.93
2018-08-10T10:55:21.476Z,42.04
2018-08-10T10:57:50.367Z,41.62
2018-08-10T11:00:20.584Z,42.71
2018-08-10T11:02:49.732Z,43.40
2018-08-10T11:05:18.396Z,43.36
2018-08-10T11:07:47.359Z,43.34
2018-08-10T11:10:17.143Z,43.80
2018-08-10T11:12:45.549Z,43.76
2018-08-10T11:15:14.375Z,43.35
2018-08-10T11:17:42.959Z,43.92
2018-08-10T11:20:12.938Z,44.54
2018-08-10T11:22:41.872Z,44.17
2018-08-10T11:25:11.960Z,45.15
2018-08-10T11:27:41.594Z,45.39
2018-08-10T11:30:10.587Z,45.92
2018-08-10T11:32:38.929Z,45.95
2018-08-10T11:35:07.845Z,46.20
2018-08-10T11:37:36.317Z,45.88
2018-08-10T11:40:07.163Z,46.32
2018-08-10T11:42:35.533Z,46.42
2018-08-10T11:45:04.458Z,46.31
2018-08-10T11:47:32.891Z,46.28
2018-08-10T11:50:01.291Z,46.90
2018-08-10T11:52:29.773Z,46.40
2018-08-10T11:54:58.236Z,46.56
2018-08-10T11:57:26.658Z,45.96
2018-08-10T11:59:55.652Z,45.96
2018-08-10T12:02:24.096Z,46.25
2018-08-10T12:04:52.507Z,46.20
2018-08-10T12:07:20.983Z,45.94
2018-08-10T12:09:49.400Z,45.58
2018-08-10T12:12:17.773Z,46.27
2018-08-10T12:14:46.155Z,45.32
2018-08-10T12:17:14.536Z,45.57
2018-08-10T12:19:43.498Z,45.25
2018-08-10T12:22:11.860Z,44.41
2018-08-10T12:25:16.595Z,44.47
2018-08-10T12:27:45.007Z,44.62
2018-08-10T12:30:14.772Z,44.39
2018-08-10T12:32:43.098Z,44.24
2018-08-10T12:35:11.971Z,44.47
2018-08-10T12:37:40.420Z,44.53
2018-08-10T12:40:09.066Z,44.37
2018-08-10T12:42:37.824Z,44.82
2018-08-10T12:45:06.739Z,44.58
2018-08-10T12:47:35.414Z,45.01
2018-08-10T12:50:03.875Z,44.49
2018-08-10T12:52:32.326Z,44.32
2018-08-10T12:55:00.751Z,44.48
2018-08-10T12:57:29.340Z,44.70
2018-08-10T12:59:58.373Z,44.33
2018-08-10T13:02:27.010Z,43.97
2018-08-10T13:04:55.467Z,44.16
2018-08-10T13:07:23.952Z,44.41
2018-08-10T13:09:53.734Z,45.02
2018-08-10T13:12:22.193Z,44.32
2018-08-10T13:14:51.037Z,44.04
2018-08-10T13:17:20.873Z,44.73
2018-08-10T13:19:49.313Z,44.98
2018-08-10T13:22:17.831Z,44.75
2018-08-10T13:24:46.274Z,45.18
2018-08-10T13:27:14.755Z,45.03
2018-08-10T13:29:43.202Z,44.41
2018-08-10T13:32:11.650Z,45.02
2018-08-10T13:34:40.098Z,44.80
2018-08-10T13:37:08.509Z,45.54
2018-08-10T13:39:36.956Z,44.44
2018-08-10T13:42:05.386Z,44.57
2018-08-10T13:44:34.237Z,44.00
2018-08-10T13:47:02.706Z,44.08
2018-08-10T13:49:31.039Z,43.05
2018-08-10T13:51:59.422Z,43.44
2018-08-10T13:54:27.868Z,42.85
2018-08-10T13:56:56.329Z,42.86
2018-08-10T13:59:24.761Z,42.71
2018-08-10T14:01:53.492Z,42.34
2018-08-10T14:04:21.967Z,42.65
2018-08-10T14:06:50.491Z,42.24
2018-08-10T14:09:18.920Z,42.30
2018-08-10T14:11:47.285Z,42.54
2018-08-10T14:14:16.341Z,42.55
2018-08-10T14:16:44.801Z,41.76
2018-08-10T14:19:13.461Z,42.36
2018-08-10T14:21:42.022Z,41.94
2018-08-10T14:24:10.848Z,42.21
2018-08-10T14:26:39.674Z,41.97
2018-08-10T14:29:08.637Z,41.94
2018-08-10T14:31:37.027Z,42.60
2018-08-10T14:34:05.902Z,42.70
2018-08-10T14:36:34.282Z,42.40
2018-08-10T14:39:02.771Z,42.24
2018-08-10T14:41:31.244Z,41.67
2018-08-10T14:43:59.627Z,41.50
2018-08-10T14:46:28.213Z,41.54
2018-08-10T14:48:56.696Z,42.06
2018-08-10T14:51:25.075Z,41.52
2018-08-10T14:53:53.540Z,41.09
2018-08-10T14:56:21.918Z,41.62
2018-08-10T14:58:51.367Z,41.56
2018-08-10T15:01:19.911Z,41.44
2018-08-10T15:03:48.306Z,40.75
2018-08-10T15:06:17.584Z,40.97
2018-08-10T15:08:46.127Z,40.97
2018-08-10T15:11:15.337Z,40.91
2018-08-10T15:13:43.744Z,40.91
2018-08-10T15:16:12.972Z,40.40
2018-08-10T15:18:41.457Z,40.83
2018-08-10T15:21:09.920Z,41.15
2018-08-10T15:23:38.906Z,40.93
2018-08-10T15:26:07.326Z,39.74
2018-08-10T15:28:35.778Z,40.51
2018-08-10T15:31:04.168Z,40.99
2018-08-10T15:33:32.652Z,40.99
2018-08-10T15:36:02.473Z,40.62
2018-08-10T15:38:30.947Z,40.60
2018-08-10T15:40:59.913Z,40.44
2018-08-10T15:43:28.675Z,40.04
2018-08-10T15:45:57.144Z,40.23
2018-08-10T15:48:25.571Z,40.31
2018-08-10T15:50:53.980Z,40.46
2018-08-10T15:53:22.420Z,40.44
2018-08-10T15:55:50.902Z,39.63
2018-08-10T15:58:19.350Z,40.00
2018-08-10T16:00:47.809Z,40.65
2018-08-10T16:03:16.245Z,39.61
2018-08-10T16:05:44.649Z,39.65
2018-08-10T16:08:13.012Z,39.26
2018-08-10T16:10:41.387Z,39.55
2018-08-10T16:13:09.790Z,39.82
2018-08-10T16:15:38.340Z,39.73
2018-08-10T16:18:06.991Z,40.06
2018-08-10T16:20:35.436Z,39.98
2018-08-10T16:23:03.863Z,40.34
2018-08-10T16:25:33.230Z,39.85
2018-08-10T16:28:01.620Z,39.75
2018-08-10T16:30:30.039Z,40.30
2018-08-10T16:32:58.409Z,40.39
2018-08-10T16:35:26.849Z,40.38
2018-08-10T16:37:55.296Z,40.67
2018-08-10T16:40:23.680Z,39.99
2018-08-10T16:42:52.100Z,39.66
2018-08-10T16:45:20.476Z,39.66
2018-08-10T16:47:48.897Z,39.97
2018-08-10T16:50:18.579Z,39.79
2018-08-10T16:52:47.252Z,40.69
2018-08-10T16:55:17.985Z,40.55
2018-08-10T16:57:47.181Z,39.94
2018-08-10T17:00:17.465Z,40.07
2018-08-10T17:02:46.199Z,39.88
2018-08-10T17:05:14.676Z,40.46
2018-08-10T17:07:43.240Z,39.75
2018-08-10T17:10:11.802Z,39.91
2018-08-10T17:12:41.225Z,40.40
2018-08-10T17:15:12.387Z,40.92
2018-08-10T17:17:41.375Z,41.46
2018-08-10T17:20:10.465Z,41.21
2018-08-10T17:22:38.888Z,41.03
2018-08-10T17:25:08.408Z,41.73
2018-08-10T17:27:36.863Z,42.02
2018-08-10T17:30:07.266Z,42.03
2018-08-10T17:32:35.650Z,41.45
2018-08-10T17:35:04.089Z,41.79
2018-08-10T17:37:32.480Z,41.53
2018-08-10T17:40:00.897Z,41.12
2018-08-10T17:42:29.285Z,41.30
2018-08-10T17:44:57.674Z,41.40
2018-08-10T17:47:26.073Z,40.86
2018-08-10T17:49:54.468Z,41.15
2018-08-10T17:52:23.105Z,41.42
2018-08-10T17:54:51.511Z,41.95
2018-08-10T17:57:19.995Z,41.82
2018-08-10T17:59:48.359Z,41.53
2018-08-10T18:02:16.741Z,42.20
2018-08-10T18:04:45.156Z,41.92
2018-08-10T18:07:13.599Z,42.02
2018-08-10T18:09:42.035Z,41.60
2018-08-10T18:12:10.403Z,42.53
2018-08-10T18:14:38.793Z,43.07
2018-08-10T18:17:07.219Z,43.74
2018-08-10T18:19:35.607Z,42.77
2018-08-10T18:22:03.977Z,42.69
2018-08-10T18:24:32.409Z,42.47
2018-08-10T18:27:00.818Z,42.82
2018-08-10T18:29:29.216Z,42.70
2018-08-10T18:31:57.591Z,42.67
2018-08-10T18:34:26.030Z,42.59
2018-08-10T18:36:54.401Z,42.59
2018-08-10T18:39:22.787Z,43.22
2018-08-10T18:41:51.187Z,42.86
2018-08-10T18:44:19.618Z,43.46
2018-08-10T18:46:48.031Z,43.39
2018-08-10T18:49:16.394Z,43.43
2018-08-10T18:51:44.802Z,43.39
2018-08-10T18:54:13.164Z,43.57
2018-08-10T18:56:41.561Z,43.61
2018-08-10T18:59:09.968Z,44.25
2018-08-10T19:01:38.388Z,44.13
2018-08-10T19:04:06.762Z,44.01
2018-08-10T19:06:35.208Z,44.02
2018-08-10T19:09:03.865Z,44.02
2018-08-10T19:11:32.223Z,44.12
2018-08-10T19:14:00.671Z,44.10
2018-08-10T19:16:29.088Z,44.71
2018-08-10T19:18:57.522Z,44.87
2018-08-10T19:21:25.928Z,44.65
2018-08-10T19:23:54.306Z,45.11
2018-08-10T19:26:22.704Z,44.94
2018-08-10T19:28:51.084Z,45.67
2018-08-10T19:31:19.467Z,46.50
2018-08-10T19:33:48.472Z,46.30
2018-08-10T19:36:17.162Z,46.76
2018-08-10T19:38:45.844Z,46.76
2018-08-10T19:41:14.276Z,46.86
2018-08-10T19:43:42.678Z,47.01
2018-08-10T19:46:11.052Z,46.93
2018-08-10T19:48:40.068Z,46.33
2018-08-10T19:51:08.495Z,47.80
2018-08-10T19:53:37.943Z,47.30
2018-08-10T19:56:07.069Z,47.05
2018-08-10T19:58:35.405Z,47.14
2018-08-10T20:01:03.854Z,47.97
2018-08-10T20:03:32.294Z,48.71
2018-08-10T20:06:00.718Z,48.35
2018-08-10T20:08:29.816Z,48.30
2018-08-10T20:10:58.152Z,48.95
2018-08-10T20:13:26.558Z,48.87
2018-08-10T20:15:54.954Z,48.69
2018-08-10T20:18:23.361Z,49.03
2018-08-10T20:20:51.776Z,48.90
2018-08-10T20:23:20.229Z,49.00
2018-08-10T20:25:48.637Z,49.19
2018-08-10T20:28:17.063Z,49.18
2018-08-10T20:30:45.460Z,50.08
2018-08-10T20:33:13.875Z,49.91
2018-08-10T20:35:42.376Z,49.95
2018-08-10T20:38:10.838Z,50.35
2018-08-10T20:40:39.360Z,50.33
2018-08-10T20:43:07.780Z,50.70
2018-08-10T20:45:36.183Z,51.76
2018-08-10T20:48:04.596Z,50.41
2018-08-10T20:50:33.012Z,50.90
2018-08-10T20:53:01.436Z,50.23
2018-08-10T20:55:29.835Z,50.39
2018-08-10T20:57:58.214Z,50.79
2018-08-10T21:00:26.566Z,49.96
2018-08-10T21:02:54.972Z,50.33
2018-08-10T21:05:23.380Z,51.22
2018-08-10T21:07:51.792Z,50.63
2018-08-10T21:10:20.583Z,50.02
2018-08-10T21:12:48.932Z,50.35
2018-08-10T21:15:17.595Z,50.24
2018-08-10T21:17:46.665Z,50.98
2018-08-10T21:20:16.357Z,50.19
2018-08-10T21:22:44.724Z,50.29
2018-08-10T21:25:13.619Z,50.25
2018-08-10T21:27:42.536Z,51.13
2018-08-10T21:30:18.879Z,50.48
2018-08-10T21:32:47.878Z,51.04
2018-08-10T21:35:16.321Z,50.10
2018-08-10T21:37:45.054Z,50.04
2018-08-10T21:40:13.456Z,49.86
2018-08-10T21:42:42.726Z,49.96
2018-08-10T21:45:11.172Z,49.73
2018-08-10T21:47:39.545Z,49.43
2018-08-10T21:50:10.414Z,49.69
2018-08-10T21:52:38.800Z,50.15
2018-08-10T21:55:07.213Z,49.39
2018-08-10T21:57:35.621Z,49.40
2018-08-10T22:00:06.702Z,49.10
2018-08-10T22:02:35.118Z,49.17
2018-08-10T22:05:04.140Z,48.36
2018-08-10T22:07:32.558Z,49.18
2018-08-10T22:10:00.929Z,48.71
2018-08-10T22:12:29.431Z,48.64
2018-08-10T22:15:03.454Z,48.95
2018-08-10T22:17:37.662Z,48.21
2018-08-10T22:20:06.411Z,48.43
2018-08-10T22:22:34.827Z,48.44
2018-08-10T22:25:03.307Z,48.37
2018-08-10T22:27:32.285Z,48.74
2018-08-10T22:30:00.731Z,48.36
2018-08-10T22:32:29.146Z,48.94
2018-08-10T22:34:57.763Z,48.88
2018-08-10T22:37:26.176Z,49.21
2018-08-10T22:39:55.172Z,48.90
2018-08-10T22:42:23.650Z,48.50
2018-08-10T22:44:52.080Z,49.06
2018-08-10T22:47:20.476Z,49.42
2018-08-10T22:49:48.865Z,49.34
2018-08-10T22:52:17.313Z,48.92
2018-08-10T22:54:46.028Z,49.48
2018-08-10T22:57:14.451Z,49.47
2018-08-10T22:59:42.817Z,49.79
2018-08-10T23:02:11.159Z,48.80
2018-08-10T23:04:40.034Z,49.26
2018-08-10T23:07:08.720Z,50.11
2018-08-10T23:09:37.165Z,50.04
2018-08-10T23:12:05.603Z,49.55
2018-08-10T23:14:34.790Z,50.06
2018-08-10T23:17:03.239Z,49.39
2018-08-10T23:19:32.356Z,50.39
2018-08-10T23:22:00.832Z,50.04
2018-08-10T23:24:29.238Z,50.18
2018-08-10T23:26:57.657Z,50.04
2018-08-10T23:29:26.033Z,50.63
2018-08-10T23:31:54.408Z,50.15
2018-08-10T23:34:22.815Z,50.06
2018-08-10T23:36:51.197Z,49.88
2018-08-10T23:39:19.694Z,49.82
2018-08-10T23:41:48.090Z,50.03
2018-08-10T23:44:16.499Z,50.10
2018-08-10T23:46:44.875Z,49.42
2018-08-10T23:49:13.297Z,49.86
2018-08-10T23:51:41.774Z,50.04
2018-08-10T23:54:10.188Z,49.74
2018-08-10T23:56:38.571Z,50.04
2018-08-10T23:59:07.102Z,49.42
